Time;durP1;ratioP1;P1;durP2;ratioP2;P2;SDS_P1;SDS_P2;PMS_P1;PMS_P2;Temp;Humidity;BMP_temperature;BMP_pressure;BME280_temperature;BME280_humidity;BME280_pressure;Samples;Min_cycle;Max_cycle;Signal;HPM_P1;HPM_P2
2022/01/28 00:04:47;;;;;;;26.93;15.53;;;;;;;-1.68;87.28;101172.59;4968954;28;20027;-68
2022/01/28 00:07:13;;;;;;;47.60;16.73;;;;;;;-1.66;86.92;101168.53;4972538;28;20274;-66
2022/01/28 00:09:38;;;;;;;25.50;15.63;;;;;;;-1.79;87.42;101152.16;4974121;28;20557;-68
2022/01/28 00:12:06;;;;;;;29.40;14.50;;;;;;;-1.68;87.62;101172.59;4971581;28;20031;-68
2022/01/28 00:14:42;;;;;;;22.97;14.17;;;;;;;-1.79;87.54;101158.88;4974053;28;20030;-68
2022/01/28 00:39:14;;;;;;;26.60;15.40;;;;;;;-2.79;93.04;101150.78;4951918;29;20050;-68
2022/01/28 00:41:39;;;;;;;26.30;15.07;;;;;;;-2.76;93.19;101148.53;4951680;29;20514;-70
2022/01/28 00:44:05;;;;;;;26.60;15.77;;;;;;;-2.80;93.39;101135.47;4951663;29;20083;-68
2022/01/28 00:46:30;;;;;;;26.73;16.10;;;;;;;-2.80;93.51;101135.47;4951470;29;20122;-67
2022/01/28 00:48:56;;;;;;;27.40;15.77;;;;;;;-2.94;93.87;101122.34;4951186;29;20035;-69
2022/01/28 00:51:22;;;;;;;26.50;15.30;;;;;;;-2.90;93.92;101127.69;4951368;29;20039;-69
2022/01/28 00:53:48;;;;;;;24.63;14.93;;;;;;;-3.10;95.00;101103.84;4951091;29;20051;-69
2022/01/28 00:56:14;;;;;;;26.70;16.50;;;;;;;-3.14;95.48;101107.69;4956941;28;20038;-68
2022/01/28 00:58:40;;;;;;;26.03;16.07;;;;;;;-3.09;95.52;101109.03;4973077;28;20035;-69
2022/01/28 01:01:05;;;;;;;24.13;14.60;;;;;;;-3.04;95.42;101121.22;4972860;28;20034;-69
2022/01/28 01:03:31;;;;;;;25.10;14.90;;;;;;;-3.07;95.79;101118.41;4972523;28;20035;-70
2022/01/28 01:05:56;;;;;;;29.13;16.80;;;;;;;-3.11;96.04;101118.09;4972991;28;20058;-70
2022/01/28 01:08:22;;;;;;;29.87;16.80;;;;;;;-3.12;96.46;101113.75;4972684;28;20035;-66
2022/01/28 01:10:49;;;;;;;28.83;16.57;;;;;;;-3.42;96.46;101050.94;4973043;28;20097;-69
2022/01/28 01:13:15;;;;;;;27.67;15.80;;;;;;;-3.13;95.94;101103.50;4954488;28;20134;-70
2022/01/28 01:15:44;;;;;;;26.07;15.67;;;;;;;-3.38;96.00;101049.63;4972584;28;20103;-69
2022/01/28 01:18:20;;;;;;;19.88;12.52;;;;;;;-3.48;95.83;101037.69;4972448;28;20030;-69
2022/01/28 01:23:37;;;;;;;24.90;14.63;;;;;;;-3.49;95.84;101046.91;4972562;28;20038;-71
2022/01/28 01:26:08;;;;;;;29.83;16.03;;;;;;;-3.19;95.88;101098.75;4972564;28;20101;-71
2022/01/28 01:28:37;;;;;;;24.67;15.20;;;;;;;-3.12;95.99;101080.94;4972224;28;20035;-70
2022/01/28 01:31:06;;;;;;;38.75;15.98;;;;;;;-3.08;95.25;101097.28;4954632;28;20045;-70
2022/01/28 01:33:40;;;;;;;28.05;16.35;;;;;;;-3.28;96.46;101096.19;4971292;28;20042;-68
2022/01/28 01:36:05;;;;;;;27.27;15.53;;;;;;;-3.32;96.58;101099.13;4972263;28;20082;-70
2022/01/28 01:38:36;;;;;;;29.87;17.93;;;;;;;-3.32;96.57;101083.09;4972474;28;20125;-71
2022/01/28 01:41:03;;;;;;;31.23;17.73;;;;;;;-3.27;96.74;101081.91;4972075;28;20030;-70
2022/01/28 01:43:54;;;;;;;30.20;17.23;;;;;;;-3.23;96.68;101076.44;4971087;28;20044;-75
2022/01/28 01:52:05;;;;;;;25.00;15.63;;;;;;;-3.30;96.60;101066.47;4973559;28;20054;-71
2022/01/28 01:54:34;;;;;;;24.13;15.13;;;;;;;-3.28;96.76;101059.91;4991360;28;20031;-70
2022/01/28 01:57:01;;;;;;;25.70;15.10;;;;;;;-3.53;96.30;101023.72;4991896;28;20088;-72
2022/01/28 01:59:26;;;;;;;24.60;14.47;;;;;;;-3.26;95.76;101060.97;4991522;28;20027;-72
2022/01/28 02:01:52;;;;;;;23.27;14.40;;;;;;;-3.45;95.35;101013.66;4990975;28;20034;-72
2022/01/28 02:04:17;;;;;;;24.30;14.63;;;;;;;-3.26;95.03;101029.03;4991509;28;20516;-72
2022/01/28 02:06:43;;;;;;;23.73;14.83;;;;;;;-3.29;94.71;101035.41;4987848;28;20030;-73
2022/01/28 02:09:09;;;;;;;20.63;13.23;;;;;;;-3.18;94.41;101039.03;4991536;28;20066;-73
2022/01/28 02:11:35;;;;;;;21.00;13.13;;;;;;;-3.52;94.40;100983.50;4990922;28;20065;-73
2022/01/28 02:14:01;;;;;;;22.90;13.70;;;;;;;-3.15;93.95;101035.19;4991316;28;20030;-73
2022/01/28 02:16:26;;;;;;;24.33;14.20;;;;;;;-3.22;93.61;101014.22;4990733;28;20037;-72
2022/01/28 02:18:55;;;;;;;21.03;13.13;;;;;;;-3.10;93.24;101035.66;4991036;28;20035;-72
2022/01/28 02:21:20;;;;;;;23.27;14.10;;;;;;;-3.18;92.92;101006.19;4991117;28;20056;-73
2022/01/28 02:23:50;;;;;;;23.87;14.90;;;;;;;-3.20;92.90;101008.56;4991117;28;20109;-73
2022/01/28 02:26:17;;;;;;;24.30;13.53;;;;;;;-3.43;92.79;100968.38;4991012;28;20497;-73
2022/01/28 02:28:48;;;;;;;22.67;13.17;;;;;;;-3.06;92.56;101015.00;4990903;28;20034;-73
2022/01/28 02:31:19;;;;;;;20.17;12.97;;;;;;;-3.02;92.25;101011.16;4942082;28;20492;-72
2022/01/28 02:33:46;;;;;;;23.03;13.17;;;;;;;-2.98;91.94;101015.75;4990814;28;20023;-72
2022/01/28 02:36:11;;;;;;;20.10;12.83;;;;;;;-2.92;91.71;101013.84;4992899;28;20034;-73
2022/01/28 02:38:37;;;;;;;24.50;14.70;;;;;;;-2.98;91.67;101014.13;4994822;28;20042;-72
2022/01/28 02:41:04;;;;;;;23.30;14.27;;;;;;;-2.98;91.41;101010.69;4995124;28;20058;-73
2022/01/28 02:43:44;;;;;;;27.77;14.47;;;;;;;-2.93;90.98;101004.47;4994646;28;20030;-74
2022/01/28 02:46:14;;;;;;;24.17;14.27;;;;;;;-2.91;89.72;100997.06;4978645;28;20054;-73
2022/01/28 02:48:42;;;;;;;22.83;13.27;;;;;;;-2.96;90.57;101012.63;4994958;28;20093;-74
2022/01/28 02:51:18;;;;;;;17.58;11.10;;;;;;;-3.18;91.46;101001.16;4994773;28;20424;-73
2022/01/28 02:56:17;;;;;;;27.87;16.57;;;;;;;-3.53;93.55;101009.47;4994750;28;20046;-72
2022/01/28 02:58:44;;;;;;;25.93;15.70;;;;;;;-3.75;94.60;100982.06;4977450;28;20096;-73
2022/01/28 03:01:13;;;;;;;26.07;15.60;;;;;;;-3.64;95.11;100997.38;4994832;28;20027;-73
2022/01/28 03:03:39;;;;;;;19.27;12.68;;;;;;;-3.72;95.72;101001.66;4977122;28;20577;-74
2022/01/28 03:06:05;;;;;;;27.53;16.47;;;;;;;-3.89;95.84;100967.13;4994026;28;20056;-74
2022/01/28 03:08:31;;;;;;;25.87;15.83;;;;;;;-3.69;96.16;100999.44;4994073;28;20113;-73
2022/01/28 03:14:13;;;;;;;27.27;15.30;;;;;;;-3.76;96.47;100994.53;4994511;28;20041;-73
2022/01/28 03:16:55;;;;;;;28.67;16.27;;;;;;;-3.77;96.49;101003.69;4994112;28;20488;-72
2022/01/28 03:19:23;;;;;;;26.90;16.07;;;;;;;-3.98;96.22;100969.59;4994117;28;20122;-73
2022/01/28 03:22:03;;;;;;;27.88;16.63;;;;;;;-3.89;95.27;100989.84;4993830;28;20562;-72
2022/01/28 03:24:28;;;;;;;;;;;;;;;-3.68;95.00;101011.31;4994254;28;20046;-73
2022/01/28 03:27:01;;;;;;;29.87;16.93;;;;;;;-3.81;94.68;101009.19;4975756;28;20363;-69
2022/01/28 03:29:27;;;;;;;34.10;19.40;;;;;;;-3.93;94.87;101016.38;4994168;28;20117;-72
2022/01/28 03:31:52;;;;;;;29.77;17.83;;;;;;;-3.89;95.55;101007.47;4994155;28;20412;-70
2022/01/28 03:34:18;;;;;;;28.70;18.17;;;;;;;-3.69;95.85;101001.06;4969610;28;20034;-71
2022/01/28 03:36:43;;;;;;;27.20;16.50;;;;;;;-3.65;96.45;101000.66;4993712;28;20114;-71
2022/01/28 03:39:10;;;;;;;28.27;17.37;;;;;;;-3.69;96.28;100993.50;4993269;28;20030;-73
2022/01/28 03:41:37;;;;;;;30.07;18.23;;;;;;;-4.17;96.14;100920.56;4993783;28;20214;-72
2022/01/28 03:44:02;;;;;;;29.20;17.33;;;;;;;-3.72;96.22;100991.56;4993812;28;20031;-72
2022/01/28 03:46:31;;;;;;;29.87;16.00;;;;;;;-3.90;96.46;100983.00;4993183;28;20041;-71
2022/01/28 03:48:58;;;;;;;27.92;16.83;;;;;;;-3.92;97.23;100982.84;4993491;28;20034;-72
2022/01/28 03:51:24;;;;;;;28.37;16.60;;;;;;;-4.08;97.88;100960.19;4993495;28;20729;-71
2022/01/28 03:53:51;;;;;;;29.47;17.83;;;;;;;-4.03;97.70;100975.81;4993173;28;20050;-71
2022/01/28 03:56:16;;;;;;;29.83;17.17;;;;;;;-4.08;98.61;100964.34;4987451;28;20038;-72
2022/01/28 03:58:43;;;;;;;29.63;18.10;;;;;;;-4.45;98.70;100915.19;4993109;28;20041;-71
2022/01/28 04:01:21;;;;;;;32.30;17.80;;;;;;;-4.23;99.08;100943.50;4993418;28;20033;-72
2022/01/28 04:04:24;;;;;;;22.47;13.67;;;;;;;-4.58;99.38;100890.34;4993381;28;20105;-72
2022/01/28 04:12:04;;;;;;;31.77;16.80;;;;;;;-4.72;99.92;100934.25;4992599;28;20037;-73
2022/01/28 04:14:41;;;;;;;29.60;17.30;;;;;;;-4.61;99.79;100950.47;4992206;28;20027;-71
2022/01/28 04:19:35;;;;;;;28.10;16.13;;;;;;;-4.72;100.00;100951.88;4992607;28;20038;-72
2022/01/28 04:22:01;;;;;;;20.25;12.15;;;;;;;-4.85;100.00;100929.53;4992256;28;20408;-72
2022/01/28 04:24:26;;;;;;;27.20;15.83;;;;;;;-4.75;100.00;100951.56;4990929;28;20117;-73
2022/01/28 04:26:53;;;;;;;34.13;18.23;;;;;;;-4.69;100.00;100947.16;4992129;28;20030;-72
2022/01/28 04:29:18;;;;;;;28.63;16.70;;;;;;;-4.69;100.00;100939.59;4992392;28;20026;-72
2022/01/28 04:31:46;;;;;;;35.47;19.93;;;;;;;-4.78;99.79;100909.31;4991684;28;20025;-72
2022/01/28 04:34:14;;;;;;;29.13;17.20;;;;;;;-4.68;99.59;100928.78;4991634;28;20035;-72
2022/01/28 04:36:56;;;;;;;29.90;17.80;;;;;;;-4.67;100.00;100933.09;4974126;28;20495;-72
2022/01/28 04:39:30;;;;;;;32.87;17.97;;;;;;;-4.58;99.61;100933.19;4991734;28;20081;-70
2022/01/28 04:44:30;;;;;;;32.73;20.00;;;;;;;-4.71;100.00;100930.97;4991488;28;20034;-72
2022/01/28 04:47:09;;;;;;;35.50;20.27;;;;;;;-5.12;100.00;100862.06;4992053;28;20022;-70
2022/01/28 04:49:51;;;;;;;35.50;20.48;;;;;;;-4.78;100.00;100933.59;4986557;28;20045;-70
2022/01/28 05:00:44;;;;;;;39.40;24.23;;;;;;;-4.84;100.00;100932.97;4990646;28;20037;-72
2022/01/28 05:06:10;;;;;;;38.77;22.43;;;;;;;-4.86;100.00;100930.25;4990734;28;20042;-71
2022/01/28 05:27:06;;;;;;;36.17;20.37;;;;;;;-4.74;100.00;100921.47;4991378;28;20034;-69
2022/01/28 05:29:31;;;;;;;36.53;21.00;;;;;;;-4.74;100.00;100923.13;4991051;28;20022;-71
2022/01/28 05:31:57;;;;;;;40.63;23.30;;;;;;;-4.73;100.00;100912.31;4975389;28;20030;-71
2022/01/28 05:34:25;;;;;;;35.77;23.77;;;;;;;-4.76;100.00;100917.94;4954050;28;20127;-73
2022/01/28 05:36:52;;;;;;;44.38;27.35;;;;;;;-4.64;100.00;100914.91;4951315;28;20042;-71
2022/01/28 05:39:18;;;;;;;33.87;21.63;;;;;;;-4.62;99.67;100911.81;4978666;28;20046;-79
2022/01/28 05:41:43;;;;;;;33.07;21.03;;;;;;;-4.53;99.64;100905.94;4985063;28;20041;-75
2022/01/28 05:44:09;;;;;;;37.60;22.33;;;;;;;-4.59;99.10;100886.91;4984264;28;20027;-76
2022/01/28 05:46:34;;;;;;;36.37;21.23;;;;;;;-4.55;98.88;100903.25;4987897;28;20037;-72
2022/01/28 05:49:00;;;;;;;31.63;21.73;;;;;;;-4.62;98.78;100895.81;4987794;28;20042;-76
2022/01/28 05:51:25;;;;;;;34.00;20.23;;;;;;;-4.64;98.60;100899.78;4969361;28;20778;-75
2022/01/28 05:53:53;;;;;;;35.30;20.63;;;;;;;-4.97;99.14;100846.06;4984236;28;20124;-74
2022/01/28 05:56:19;;;;;;;34.53;21.43;;;;;;;-4.68;99.68;100897.69;4985373;28;20054;-75
2022/01/28 05:58:45;;;;;;;33.83;20.83;;;;;;;-4.67;99.61;100912.03;4958891;28;20509;-74
2022/01/28 06:01:10;;;;;;;35.97;21.20;;;;;;;-4.73;100.00;100907.28;4979657;28;20069;-74
2022/01/28 06:03:35;;;;;;;35.90;21.13;;;;;;;-4.82;99.78;100889.56;4988334;28;20053;-74
2022/01/28 06:06:01;;;;;;;36.93;20.90;;;;;;;-5.05;100.00;100854.41;4984720;28;20029;-76
2022/01/28 06:08:26;;;;;;;43.57;24.83;;;;;;;-4.65;100.00;100913.97;4979512;28;20034;-76
2022/01/28 06:10:52;;;;;;;43.97;24.63;;;;;;;-4.94;99.99;100843.84;4946365;28;20102;-75
2022/01/28 06:13:17;;;;;;;43.13;23.80;;;;;;;-4.60;99.96;100895.22;4949043;29;20122;-75
2022/01/28 06:15:44;;;;;;;40.13;21.67;;;;;;;-4.44;99.77;100890.13;4932410;29;20152;-76
2022/01/28 06:18:10;;;;;;;32.90;20.23;;;;;;;-4.29;99.51;100900.88;4949060;29;20043;-76
2022/01/28 06:20:37;;;;;;;33.23;20.53;;;;;;;-4.22;98.61;100897.38;4933196;29;20047;-76
2022/01/28 06:23:03;;;;;;;35.60;20.43;;;;;;;-4.29;98.48;100875.69;4915744;29;20498;-83
2022/01/28 06:25:29;;;;;;;36.47;20.73;;;;;;;-4.13;98.97;100887.34;4949626;29;20227;-76
2022/01/28 06:27:55;;;;;;;39.47;20.37;;;;;;;-3.98;98.48;100901.50;4949265;29;20110;-76
2022/01/28 06:30:22;;;;;;;32.73;20.70;;;;;;;-3.97;98.37;100892.31;4948904;29;20114;-76
2022/01/28 06:32:48;;;;;;;34.57;18.60;;;;;;;-3.75;98.48;100901.31;4948972;29;20054;-76
2022/01/28 06:35:14;;;;;;;33.10;18.87;;;;;;;-3.67;98.31;100892.00;4949323;29;20478;-76
2022/01/28 06:37:41;;;;;;;27.50;17.40;;;;;;;-3.62;97.96;100892.47;4949301;29;20069;-76
2022/01/28 06:40:17;;;;;;;30.07;18.37;;;;;;;-3.61;98.32;100894.25;4949605;29;20043;-76
2022/01/28 06:42:43;;;;;;;29.37;18.00;;;;;;;-3.46;98.81;100899.94;4984346;28;20133;-76
2022/01/28 06:45:09;;;;;;;31.23;18.27;;;;;;;-3.45;98.97;100895.03;4972412;28;20121;-76
2022/01/28 06:47:35;;;;;;;28.73;16.50;;;;;;;-3.35;98.76;100901.88;4991177;28;20182;-75
2022/01/28 06:50:02;;;;;;;27.40;16.30;;;;;;;-3.42;99.25;100909.59;4972990;28;20133;-75
2022/01/28 06:52:28;;;;;;;27.40;17.10;;;;;;;-3.49;99.95;100900.53;4973018;28;20058;-75
2022/01/28 06:54:53;;;;;;;28.30;17.70;;;;;;;-3.32;100.00;100918.97;4972968;28;20033;-74
2022/01/28 06:57:20;;;;;;;27.73;17.17;;;;;;;-3.29;100.00;100912.59;4990849;28;20037;-74
2022/01/28 06:59:46;;;;;;;29.13;17.73;;;;;;;-3.21;100.00;100908.28;4990127;28;20030;-74
2022/01/28 07:02:14;;;;;;;28.00;17.03;;;;;;;-3.21;100.00;100920.03;4971961;28;20425;-73
2022/01/28 07:04:39;;;;;;;30.33;16.87;;;;;;;-3.40;100.00;100880.34;4990254;28;20041;-73
2022/01/28 07:07:06;;;;;;;36.80;21.73;;;;;;;-3.09;100.00;100912.03;4989796;28;20031;-74
2022/01/28 07:09:32;;;;;;;36.73;19.63;;;;;;;-3.22;100.00;100891.34;4990362;28;20037;-74
2022/01/28 07:11:58;;;;;;;33.60;19.10;;;;;;;-2.85;100.00;100924.41;4989984;28;20022;-74
2022/01/28 07:14:23;;;;;;;27.70;17.87;;;;;;;-3.19;100.00;100850.34;4990596;28;20042;-74
2022/01/28 07:16:49;;;;;;;25.80;18.00;;;;;;;-2.87;100.00;100893.91;4989777;28;20037;-74
2022/01/28 07:19:14;;;;;;;26.67;15.93;;;;;;;-2.65;100.00;100899.41;4989621;28;20026;-74
2022/01/28 07:21:40;;;;;;;24.63;15.60;;;;;;;-2.53;100.00;100899.72;4990421;28;20041;-74
2022/01/28 07:24:06;;;;;;;25.03;15.23;;;;;;;-2.38;100.00;100914.53;4992863;28;20037;-73
2022/01/28 07:26:31;;;;;;;26.17;15.93;;;;;;;-2.32;100.00;100915.13;4992860;28;20023;-74
2022/01/28 07:28:57;;;;;;;26.73;15.93;;;;;;;-2.28;100.00;100896.97;4991417;28;20112;-74
2022/01/28 07:31:22;;;;;;;24.83;15.23;;;;;;;-2.28;100.00;100884.31;4993171;28;20117;-74
2022/01/28 07:33:48;;;;;;;25.10;14.50;;;;;;;-2.20;100.00;100887.59;4993281;28;20041;-74
2022/01/28 07:36:15;;;;;;;25.93;14.73;;;;;;;-2.05;100.00;100900.81;4992504;28;20069;-74
2022/01/28 07:39:02;;;;;;;25.17;14.20;;;;;;;-1.93;100.00;100911.16;4993011;28;20042;-74
2022/01/28 07:41:28;;;;;;;23.70;13.83;;;;;;;-1.84;100.00;100902.78;4952024;29;20051;-74
2022/01/28 07:43:53;;;;;;;22.53;13.77;;;;;;;-2.05;100.00;100845.16;4952987;29;20047;-75
2022/01/28 07:46:19;;;;;;;21.23;13.80;;;;;;;-1.63;100.00;100905.56;4952207;29;20054;-74
2022/01/28 07:48:45;;;;;;;22.57;14.57;;;;;;;-1.81;100.00;100860.06;4952114;29;20556;-75
2022/01/28 07:51:11;;;;;;;27.43;16.43;;;;;;;-1.57;100.00;100885.88;4948622;29;20051;-73
2022/01/28 07:53:36;;;;;;;25.13;15.43;;;;;;;-1.47;100.00;100901.16;4939817;29;20117;-73
2022/01/28 07:56:02;;;;;;;26.10;15.33;;;;;;;-1.42;100.00;100877.88;4950992;28;20051;-74
2022/01/28 07:58:27;;;;;;;24.77;14.83;;;;;;;-1.35;100.00;100885.28;4951795;28;20084;-73
2022/01/28 08:00:53;;;;;;;22.20;12.97;;;;;;;-1.59;100.00;100836.72;4951314;29;20039;-73
2022/01/28 08:03:18;;;;;;;22.00;14.37;;;;;;;-1.21;100.00;100881.47;4951823;29;20035;-73
2022/01/28 08:05:44;;;;;;;21.33;12.60;;;;;;;-1.15;100.00;100880.41;4951364;29;20031;-73
2022/01/28 08:08:12;;;;;;;20.30;13.17;;;;;;;-1.08;100.00;100876.75;4951964;28;20051;-72
2022/01/28 08:10:38;;;;;;;19.47;12.27;;;;;;;-1.34;100.00;100841.47;4918733;29;20595;-73
2022/01/28 08:13:05;;;;;;;18.80;12.40;;;;;;;-0.97;100.00;100890.41;4981911;28;20121;-74
2022/01/28 08:15:33;;;;;;;23.97;14.30;;;;;;;-0.91;100.00;100880.81;4992440;28;20065;-74
2022/01/28 08:17:59;;;;;;;21.80;13.47;;;;;;;-0.95;99.65;100857.59;4992277;28;20093;-75
2022/01/28 08:20:24;;;;;;;20.90;13.67;;;;;;;-0.87;99.45;100852.44;4992362;28;20034;-74
2022/01/28 08:22:52;;;;;;;25.23;14.73;;;;;;;-1.06;98.00;100808.47;4991892;28;20089;-74
2022/01/28 08:25:22;;;;;;;21.90;13.77;;;;;;;-0.69;98.38;100857.34;4992502;28;20042;-74
2022/01/28 08:27:50;;;;;;;24.57;15.03;;;;;;;-0.69;98.33;100852.28;4992450;28;20049;-74
2022/01/28 08:30:18;;;;;;;19.70;13.63;;;;;;;-0.60;98.45;100863.22;4991918;28;20034;-74
2022/01/28 08:32:44;;;;;;;21.50;14.27;;;;;;;-0.57;98.55;100855.91;4991244;28;20030;-74
2022/01/28 08:35:11;;;;;;;22.73;15.53;;;;;;;-0.39;97.52;100859.13;4991388;28;20034;-74
2022/01/28 08:37:36;;;;;;;21.67;14.27;;;;;;;-0.36;96.98;100861.06;4990264;28;20027;-74
2022/01/28 08:40:07;;;;;;;20.50;11.77;;;;;;;-0.14;96.12;100865.47;4991282;28;20041;-74
2022/01/28 08:42:34;;;;;;;19.63;11.90;;;;;;;-0.17;95.24;100858.47;4991870;28;20038;-74
2022/01/28 08:45:00;;;;;;;20.90;14.27;;;;;;;0.00;96.39;100875.16;4992003;28;20030;-75
2022/01/28 08:47:27;;;;;;;79.13;69.27;;;;;;;0.05;93.85;100863.75;4991515;28;20137;-75
2022/01/28 08:49:52;;;;;;;20.43;14.40;;;;;;;0.14;92.29;100872.13;4989057;28;20045;-75
2022/01/28 08:52:18;;;;;;;21.30;14.07;;;;;;;0.24;92.52;100870.38;4960671;28;20054;-74
2022/01/28 08:54:44;;;;;;;20.47;12.70;;;;;;;0.25;91.96;100856.91;4971820;28;20477;-75
2022/01/28 08:57:10;;;;;;;21.27;12.43;;;;;;;0.36;92.09;100853.63;4970977;28;20475;-75
2022/01/28 08:59:39;;;;;;;15.80;10.47;;;;;;;0.39;90.03;100861.50;4971582;28;20138;-75
2022/01/28 09:02:05;;;;;;;15.97;10.50;;;;;;;0.32;89.38;100841.44;4972436;28;20038;-75
2022/01/28 09:04:30;;;;;;;17.63;12.30;;;;;;;0.42;89.98;100856.66;4969943;28;20030;-76
2022/01/28 09:06:56;;;;;;;17.87;11.23;;;;;;;0.43;89.13;100852.50;4964595;28;20090;-75
2022/01/28 09:09:21;;;;;;;80.30;72.47;;;;;;;0.46;88.11;100853.66;4952864;28;20027;-77
2022/01/28 09:12:04;;;;;;;25.97;16.73;;;;;;;0.23;88.51;100798.38;4952234;28;20038;-75
2022/01/28 09:14:30;;;;;;;17.97;12.97;;;;;;;0.42;89.00;100825.31;4952854;28;20062;-74
2022/01/28 09:16:56;;;;;;;18.17;11.67;;;;;;;0.61;89.31;100835.34;4955828;28;20046;-72
2022/01/28 09:19:22;;;;;;;17.03;11.23;;;;;;;0.53;89.54;100826.22;4969267;28;21057;-76
2022/01/28 09:21:48;;;;;;;15.97;10.73;;;;;;;0.63;89.80;100827.06;4973115;28;20030;-74
2022/01/28 09:24:13;;;;;;;17.00;11.00;;;;;;;0.66;89.38;100820.47;4971785;28;20039;-73
2022/01/28 09:26:39;;;;;;;17.03;10.70;;;;;;;0.64;87.84;100807.66;4971778;28;20041;-73
2022/01/28 09:29:05;;;;;;;21.07;15.47;;;;;;;0.74;87.48;100820.34;4970270;28;20806;-72
2022/01/28 09:31:31;;;;;;;18.90;13.13;;;;;;;0.68;87.90;100784.25;4967211;28;20041;-70
2022/01/28 09:33:56;;;;;;;19.90;13.13;;;;;;;1.15;87.35;100824.47;4971728;28;20031;-72
2022/01/28 09:36:22;;;;;;;15.27;9.90;;;;;;;1.25;86.14;100790.50;4965147;28;20486;-72
2022/01/28 09:38:48;;;;;;;13.03;9.00;;;;;;;1.44;84.04;100801.31;4962908;28;20031;-70
2022/01/28 09:41:15;;;;;;;13.80;9.43;;;;;;;1.50;83.01;100813.66;4963269;28;20033;-72
2022/01/28 09:43:43;;;;;;;15.33;8.60;;;;;;;1.54;82.57;100807.16;4962346;28;20026;-70
2022/01/28 09:46:10;;;;;;;13.73;8.47;;;;;;;1.58;81.56;100804.97;4962652;28;20045;-69
2022/01/28 09:48:38;;;;;;;15.77;9.00;;;;;;;1.55;81.53;100780.94;4971347;28;20062;-72
2022/01/28 09:51:04;;;;;;;12.95;8.15;;;;;;;1.21;80.48;100694.34;4971646;28;20035;-72
2022/01/28 09:53:30;;;;;;;13.07;8.07;;;;;;;1.67;80.23;100774.28;4985294;28;20108;-72
2022/01/28 09:55:56;;;;;;;25.40;8.97;;;;;;;1.56;80.00;100731.84;4991548;28;20069;-70
2022/01/28 09:58:22;;;;;;;14.87;8.97;;;;;;;1.89;79.01;100768.28;4991975;28;20516;-73
2022/01/28 10:00:48;;;;;;;14.50;8.67;;;;;;;2.01;78.64;100763.25;4991467;28;20034;-74
2022/01/28 10:03:17;;;;;;;13.57;7.73;;;;;;;2.04;78.14;100763.47;4991383;28;20034;-74
2022/01/28 10:05:50;;;;;;;10.50;7.60;;;;;;;1.89;76.95;100720.78;4987465;28;20026;-74
2022/01/28 10:08:26;;;;;;;12.40;8.17;;;;;;;2.32;76.99;100773.16;4981971;28;20077;-71
2022/01/28 10:11:00;;;;;;;11.27;7.33;;;;;;;2.56;76.13;100757.16;4983204;28;20410;-74
2022/01/28 10:13:37;;;;;;;13.73;8.67;;;;;;;2.53;76.16;100712.72;4986228;28;20076;-74
2022/01/28 10:16:07;;;;;;;17.13;8.33;;;;;;;3.04;74.37;100729.13;4984555;28;20042;-74
2022/01/28 10:18:54;;;;;;;12.15;7.68;;;;;;;3.37;72.64;100737.38;4987496;28;20030;-75
2022/01/28 10:21:21;;;;;;;12.90;8.05;;;;;;;3.55;72.17;100731.03;4979863;28;20019;-75
2022/01/28 10:24:10;;;;;;;15.05;8.63;;;;;;;3.71;71.77;100730.41;4986967;28;20080;-71
2022/01/28 10:26:56;;;;;;;13.32;8.15;;;;;;;3.77;70.57;100717.16;4980384;28;20516;-73
2022/01/28 10:29:30;;;;;;;14.90;8.73;;;;;;;4.01;70.46;100725.63;4982467;28;20085;-73
2022/01/28 10:32:04;;;;;;;11.73;8.40;;;;;;;4.14;70.55;100706.88;4984081;28;20084;-73
2022/01/28 10:34:42;;;;;;;14.20;9.00;;;;;;;4.46;68.94;100720.00;4988263;28;20046;-74
2022/01/28 10:37:20;;;;;;;14.18;9.00;;;;;;;4.58;66.93;100733.59;4986815;28;20053;-72
2022/01/28 10:40:06;;;;;;;11.32;8.18;;;;;;;4.60;66.45;100726.00;4981492;28;20061;-77
2022/01/28 10:42:48;;;;;;;11.60;8.35;;;;;;;4.65;67.14;100732.34;4981721;28;20033;-73
2022/01/28 10:45:17;;;;;;;15.88;9.32;;;;;;;4.86;66.07;100714.94;4982018;28;20417;-73
2022/01/28 10:47:54;;;;;;;14.50;9.80;;;;;;;4.85;66.15;100677.34;4980690;28;20039;-75
2022/01/28 10:50:31;;;;;;;14.80;9.10;;;;;;;5.14;65.54;100711.53;4953202;28;20026;-75
2022/01/28 10:53:15;;;;;;;15.23;9.75;;;;;;;5.19;65.18;100705.03;4981259;28;20082;-75
2022/01/28 10:55:46;;;;;;;16.65;9.15;;;;;;;5.21;65.18;100703.47;4980479;28;20049;-74
2022/01/28 10:58:14;;;;;;;12.73;8.65;;;;;;;5.30;65.40;100696.34;4983571;28;20077;-74
2022/01/28 11:00:46;;;;;;;12.48;8.05;;;;;;;5.47;65.56;100693.91;4985251;28;20026;-74
2022/01/28 11:03:14;;;;;;;11.73;7.57;;;;;;;5.57;64.17;100667.19;4985724;28;20106;-75
2022/01/28 11:05:43;;;;;;;12.57;8.02;;;;;;;5.67;63.67;100677.22;4984350;28;20066;-74
2022/01/28 11:08:11;;;;;;;11.77;7.55;;;;;;;5.64;63.92;100654.84;4983863;28;20050;-74
2022/01/28 11:10:38;;;;;;;14.88;8.50;;;;;;;5.85;64.34;100690.22;4983898;28;20033;-74
2022/01/28 11:13:04;;;;;;;11.68;6.85;;;;;;;5.96;59.34;100675.50;4991857;28;20065;-73
2022/01/28 11:15:32;;;;;;;36.55;22.25;;;;;;;6.10;57.03;100682.34;4994659;28;20062;-73
2022/01/28 11:18:01;;;;;;;19.17;11.98;;;;;;;6.26;55.79;100671.28;4994608;28;20058;-73
2022/01/28 11:20:32;;;;;;;;;;;;;;;6.13;55.62;100682.53;4995022;28;20030;-71
2022/01/28 11:23:19;;;;;;;14.57;7.43;;;;;;;6.21;55.10;100674.41;4993239;28;20004;-74
2022/01/28 11:26:04;;;;;;;15.43;7.80;;;;;;;5.97;55.45;100628.59;4994400;28;20093;-75
2022/01/28 11:28:41;;;;;;;11.60;6.78;;;;;;;6.13;54.49;100661.13;4994175;28;20022;-75
2022/01/28 11:31:07;;;;;;;13.10;7.80;;;;;;;6.21;54.90;100659.03;4994571;28;20053;-71
2022/01/28 11:33:44;;;;;;;11.75;8.02;;;;;;;6.29;55.13;100656.09;4994305;28;20042;-74
2022/01/28 11:36:10;;;;;;;13.93;8.73;;;;;;;6.53;54.81;100657.38;4994476;28;20052;-73
2022/01/28 11:38:43;;;;;;;13.38;7.30;;;;;;;6.39;53.51;100659.19;4994208;28;20385;-72
2022/01/28 11:41:13;;;;;;;13.63;7.75;;;;;;;6.69;52.88;100654.00;4959540;28;20046;-72
2022/01/28 11:43:48;;;;;;;9.95;6.30;;;;;;;6.60;52.49;100616.78;4976363;28;20046;-71
2022/01/28 11:46:19;;;;;;;13.95;7.20;;;;;;;6.90;50.78;100644.03;4994130;28;20104;-75
2022/01/28 11:49:13;;;;;;;13.25;7.15;;;;;;;6.75;51.80;100656.91;4994156;28;20035;-75
2022/01/28 11:51:41;;;;;;;14.43;7.22;;;;;;;6.72;52.24;100649.94;4994155;28;20073;-75
2022/01/28 11:54:18;;;;;;;12.82;7.10;;;;;;;7.04;51.42;100632.84;4976516;28;20054;-74
2022/01/28 11:56:56;;;;;;;12.63;7.25;;;;;;;7.07;51.29;100632.13;4976621;28;20042;-74
2022/01/28 11:59:27;;;;;;;15.45;7.80;;;;;;;7.05;50.79;100616.66;4993823;28;20034;-75
2022/01/28 12:01:53;;;;;;;12.57;8.50;;;;;;;7.16;51.58;100624.03;4993792;28;20069;-74
2022/01/28 12:04:29;;;;;;;11.48;7.93;;;;;;;7.34;51.33;100618.97;4993757;28;20038;-74
2022/01/28 12:06:59;;;;;;;14.20;7.65;;;;;;;7.25;52.19;100614.22;4993979;28;20115;-73
2022/01/28 12:09:26;;;;;;;12.32;7.45;;;;;;;7.09;52.71;100597.13;4989661;28;20052;-74
2022/01/28 12:11:54;;;;;;;17.30;9.05;;;;;;;7.15;52.66;100581.19;4986972;28;20030;-75
2022/01/28 12:15:08;;;;;;;13.00;8.38;;;;;;;7.43;51.98;100609.19;4978452;28;20062;-75
2022/01/28 12:17:36;;;;;;;13.52;8.77;;;;;;;7.44;52.55;100616.09;4974137;28;20085;-75
2022/01/28 12:20:19;;;;;;;15.00;8.70;;;;;;;7.42;52.13;100605.72;4981179;28;20089;-76
2022/01/28 12:23:00;;;;;;;16.73;10.38;;;;;;;7.44;51.99;100604.13;4987078;28;20120;-75
2022/01/28 12:25:40;;;;;;;38.72;20.52;;;;;;;7.43;52.02;100609.19;4983421;28;20038;-74
2022/01/28 12:28:15;;;;;;;15.15;9.45;;;;;;;7.02;51.91;100546.28;4980592;28;20047;-75
2022/01/28 12:30:59;;;;;;;14.15;8.82;;;;;;;7.11;56.34;100580.13;4985922;28;20088;-76
2022/01/28 12:33:28;;;;;;;15.07;10.43;;;;;;;6.89;57.94;100571.31;4986228;28;20038;-74
2022/01/28 12:35:57;;;;;;;26.77;17.50;;;;;;;6.95;56.38;100602.44;4984012;28;20035;-73
2022/01/28 12:38:28;;;;;;;18.25;10.70;;;;;;;6.97;53.52;100598.25;4983090;28;20297;-72
2022/01/28 12:40:54;;;;;;;20.90;9.80;;;;;;;7.02;53.35;100605.31;4966726;28;20034;-74